Главная страница
METAR-TAF:

METAR-TAF

Аэропорты :

Каяани, Финляндия

Каяни

широта: 64-17N, долгота: 027-41E, высота над уровнем моря: 143 м

Текущие метеонаблюдения

Эта сводка был подготовлена 14 минут назад, в 06:50 UTC
Ветер 8 Узел от западный, изменяющийся между западный-юго-западный и северо-западный
Температура 13°C
Влажность 82%
Давление 992 hPa
Видимость 10 км и более
небольшая облачность на высоте 2000 фута
Рассеянная облачность на высоте 8800 фута

METAR: EFKI 270650Z AUTO 27008KT 240V310 9999 FEW020 BKN088 13/10 Q0992

Время: 10:04 (07:04 UTC)

Прогноз

Эта сводка был подготовлена 13 часа и 33 минут назад, в 17:31 UTC
Прогноз действительный с 26-го 18 UTC до 26-го 21 UTC
Ветер 4 Узел от южный-юго-западный
Видимость 10 км и более
Отдельные облака на высоте 3000 фута
Рассеянная облачность на высоте 7000 фута
временами
С 26-го 18 UTC до 26-го 21 UTC
небольшая облачность на высоте 3000 фута, Кучево-дождевые.

TAF: EFKI 261731Z 2618/2621 20004KT 9999 SCT030 BKN070 TEMPO 2618/2621 FEW030CB

Метеонаблюдения и прогнозы для более 4000 аэропортов (сводки METAR и TAF).

Имеющиеся станции представлены на карте желтыми и красными точками.

Чтобы увидеть название станции, наведите на нее мышь.

Затем щелкните, чтобы увидеть метеонаблюдения и метеопрогнозы.

Управление картой: чтобы увеличить масштаб, щелкните зеленые кнопки с черным крестиком; чтобы уменьшить масштаб, щелкните зеленую кнопку с тире; для просмотра соседних карт щелкайте зеленые стрелки.


METAR-TAF: